sensor_id;sensor_type;location;lat;lon;timestamp;P1;durP1;ratioP1;P2;durP2;ratioP2
6751;SDS011;3413;47.680;9.166;2024-02-21T00:02:56;6.70;;;2.00;;
6751;SDS011;3413;47.680;9.166;2024-02-21T00:08:01;8.60;;;2.10;;
6751;SDS011;3413;47.680;9.166;2024-02-21T00:13:04;3.30;;;1.57;;
6751;SDS011;3413;47.680;9.166;2024-02-21T00:18:07;4.13;;;1.70;;
6751;SDS011;3413;47.680;9.166;2024-02-21T00:23:09;6.33;;;1.97;;
6751;SDS011;3413;47.680;9.166;2024-02-21T00:28:11;3.70;;;1.73;;
6751;SDS011;3413;47.680;9.166;2024-02-21T00:33:13;4.23;;;1.50;;
6751;SDS011;3413;47.680;9.166;2024-02-21T00:38:15;6.07;;;1.80;;
6751;SDS011;3413;47.680;9.166;2024-02-21T00:43:17;8.43;;;2.10;;
6751;SDS011;3413;47.680;9.166;2024-02-21T00:48:19;7.33;;;2.70;;
6751;SDS011;3413;47.680;9.166;2024-02-21T00:53:21;12.63;;;2.50;;
6751;SDS011;3413;47.680;9.166;2024-02-21T00:58:23;4.83;;;2.43;;
6751;SDS011;3413;47.680;9.166;2024-02-21T01:03:25;4.80;;;1.60;;
6751;SDS011;3413;47.680;9.166;2024-02-21T01:08:27;5.10;;;2.30;;
6751;SDS011;3413;47.680;9.166;2024-02-21T01:13:29;8.83;;;2.23;;
6751;SDS011;3413;47.680;9.166;2024-02-21T01:18:30;9.50;;;3.00;;
6751;SDS011;3413;47.680;9.166;2024-02-21T01:23:34;3.93;;;1.77;;
6751;SDS011;3413;47.680;9.166;2024-02-21T01:28:36;9.20;;;2.63;;
6751;SDS011;3413;47.680;9.166;2024-02-21T01:33:38;3.47;;;2.10;;
6751;SDS011;3413;47.680;9.166;2024-02-21T01:38:40;3.30;;;1.83;;
6751;SDS011;3413;47.680;9.166;2024-02-21T01:43:42;4.53;;;2.30;;
6751;SDS011;3413;47.680;9.166;2024-02-21T01:48:44;5.67;;;2.57;;
6751;SDS011;3413;47.680;9.166;2024-02-21T01:53:48;10.33;;;2.27;;
6751;SDS011;3413;47.680;9.166;2024-02-21T01:58:52;5.20;;;2.20;;
6751;SDS011;3413;47.680;9.166;2024-02-21T02:03:54;5.90;;;2.83;;
6751;SDS011;3413;47.680;9.166;2024-02-21T02:08:56;4.50;;;2.40;;
6751;SDS011;3413;47.680;9.166;2024-02-21T02:13:58;4.13;;;2.10;;
6751;SDS011;3413;47.680;9.166;2024-02-21T02:19:00;7.93;;;2.77;;
6751;SDS011;3413;47.680;9.166;2024-02-21T02:24:03;5.13;;;2.20;;
6751;SDS011;3413;47.680;9.166;2024-02-21T02:29:06;5.13;;;2.47;;
6751;SDS011;3413;47.680;9.166;2024-02-21T02:34:08;7.17;;;2.67;;
6751;SDS011;3413;47.680;9.166;2024-02-21T02:39:10;6.30;;;2.73;;
6751;SDS011;3413;47.680;9.166;2024-02-21T02:44:12;6.50;;;3.30;;
6751;SDS011;3413;47.680;9.166;2024-02-21T02:49:14;11.40;;;2.73;;
6751;SDS011;3413;47.680;9.166;2024-02-21T02:54:16;8.53;;;2.53;;
6751;SDS011;3413;47.680;9.166;2024-02-21T02:59:18;4.83;;;2.50;;
6751;SDS011;3413;47.680;9.166;2024-02-21T03:04:20;6.37;;;2.40;;
6751;SDS011;3413;47.680;9.166;2024-02-21T03:15:48;10.13;;;2.77;;
6751;SDS011;3413;47.680;9.166;2024-02-21T03:20:59;11.97;;;2.90;;
6751;SDS011;3413;47.680;9.166;2024-02-21T03:26:05;5.63;;;2.50;;
6751;SDS011;3413;47.680;9.166;2024-02-21T03:31:18;3.93;;;2.23;;
6751;SDS011;3413;47.680;9.166;2024-02-21T03:36:42;3.10;;;2.00;;
6751;SDS011;3413;47.680;9.166;2024-02-21T03:41:53;4.30;;;2.60;;
6751;SDS011;3413;47.680;9.166;2024-02-21T03:47:01;5.53;;;3.00;;
6751;SDS011;3413;47.680;9.166;2024-02-21T03:52:09;11.17;;;3.50;;
6751;SDS011;3413;47.680;9.166;2024-02-21T03:57:13;9.33;;;3.20;;
6751;SDS011;3413;47.680;9.166;2024-02-21T04:02:17;11.77;;;2.90;;
6751;SDS011;3413;47.680;9.166;2024-02-21T04:07:20;12.67;;;3.37;;
6751;SDS011;3413;47.680;9.166;2024-02-21T04:12:29;9.17;;;3.63;;
6751;SDS011;3413;47.680;9.166;2024-02-21T04:17:39;6.60;;;2.90;;
6751;SDS011;3413;47.680;9.166;2024-02-21T04:22:45;6.33;;;2.73;;
6751;SDS011;3413;47.680;9.166;2024-02-21T04:27:56;8.73;;;3.10;;
6751;SDS011;3413;47.680;9.166;2024-02-21T04:33:01;9.37;;;2.63;;
6751;SDS011;3413;47.680;9.166;2024-02-21T04:38:13;6.90;;;3.40;;
6751;SDS011;3413;47.680;9.166;2024-02-21T04:43:18;4.70;;;3.13;;
6751;SDS011;3413;47.680;9.166;2024-02-21T04:53:48;6.47;;;3.47;;
6751;SDS011;3413;47.680;9.166;2024-02-21T04:58:53;7.37;;;2.87;;
6751;SDS011;3413;47.680;9.166;2024-02-21T05:03:56;5.30;;;2.40;;
6751;SDS011;3413;47.680;9.166;2024-02-21T05:08:58;8.83;;;3.33;;
6751;SDS011;3413;47.680;9.166;2024-02-21T05:14:00;8.20;;;2.77;;
6751;SDS011;3413;47.680;9.166;2024-02-21T05:19:02;4.50;;;2.53;;
6751;SDS011;3413;47.680;9.166;2024-02-21T05:24:05;5.93;;;3.10;;
6751;SDS011;3413;47.680;9.166;2024-02-21T05:29:07;5.00;;;2.87;;
6751;SDS011;3413;47.680;9.166;2024-02-21T05:34:09;5.63;;;2.97;;
6751;SDS011;3413;47.680;9.166;2024-02-21T05:39:13;6.00;;;2.67;;
6751;SDS011;3413;47.680;9.166;2024-02-21T05:44:15;15.33;;;3.53;;
6751;SDS011;3413;47.680;9.166;2024-02-21T05:49:18;9.37;;;3.47;;
6751;SDS011;3413;47.680;9.166;2024-02-21T05:54:20;7.33;;;3.53;;
6751;SDS011;3413;47.680;9.166;2024-02-21T05:59:22;8.33;;;3.40;;
6751;SDS011;3413;47.680;9.166;2024-02-21T06:04:24;6.83;;;3.30;;
6751;SDS011;3413;47.680;9.166;2024-02-21T06:09:26;12.27;;;4.13;;
6751;SDS011;3413;47.680;9.166;2024-02-21T06:14:28;9.23;;;3.50;;
6751;SDS011;3413;47.680;9.166;2024-02-21T06:19:30;9.00;;;3.60;;
6751;SDS011;3413;47.680;9.166;2024-02-21T06:24:32;13.37;;;3.67;;
6751;SDS011;3413;47.680;9.166;2024-02-21T06:29:34;8.67;;;3.83;;
6751;SDS011;3413;47.680;9.166;2024-02-21T06:34:36;6.63;;;3.13;;
6751;SDS011;3413;47.680;9.166;2024-02-21T06:39:39;6.07;;;3.13;;
6751;SDS011;3413;47.680;9.166;2024-02-21T06:44:42;8.03;;;3.23;;
6751;SDS011;3413;47.680;9.166;2024-02-21T06:49:48;5.10;;;2.97;;
6751;SDS011;3413;47.680;9.166;2024-02-21T06:54:51;6.00;;;3.13;;
6751;SDS011;3413;47.680;9.166;2024-02-21T06:59:53;10.73;;;3.80;;
6751;SDS011;3413;47.680;9.166;2024-02-21T07:04:55;9.33;;;4.00;;
6751;SDS011;3413;47.680;9.166;2024-02-21T07:09:57;9.73;;;3.47;;
6751;SDS011;3413;47.680;9.166;2024-02-21T07:14:59;5.27;;;3.27;;
6751;SDS011;3413;47.680;9.166;2024-02-21T07:20:02;9.67;;;4.07;;
6751;SDS011;3413;47.680;9.166;2024-02-21T07:25:05;4.13;;;2.77;;
6751;SDS011;3413;47.680;9.166;2024-02-21T07:30:07;6.57;;;3.50;;
6751;SDS011;3413;47.680;9.166;2024-02-21T07:35:09;6.97;;;4.00;;
6751;SDS011;3413;47.680;9.166;2024-02-21T07:40:13;10.27;;;4.20;;
6751;SDS011;3413;47.680;9.166;2024-02-21T07:45:16;17.90;;;4.67;;
6751;SDS011;3413;47.680;9.166;2024-02-21T07:50:20;7.70;;;3.93;;
6751;SDS011;3413;47.680;9.166;2024-02-21T07:55:22;11.30;;;4.73;;
6751;SDS011;3413;47.680;9.166;2024-02-21T08:00:24;13.13;;;4.70;;
6751;SDS011;3413;47.680;9.166;2024-02-21T08:05:26;6.87;;;3.93;;
6751;SDS011;3413;47.680;9.166;2024-02-21T08:10:28;7.33;;;3.90;;
6751;SDS011;3413;47.680;9.166;2024-02-21T08:15:31;14.10;;;4.17;;
6751;SDS011;3413;47.680;9.166;2024-02-21T08:20:33;15.80;;;4.60;;
6751;SDS011;3413;47.680;9.166;2024-02-21T08:25:35;9.97;;;4.60;;
6751;SDS011;3413;47.680;9.166;2024-02-21T08:30:37;8.93;;;4.37;;
6751;SDS011;3413;47.680;9.166;2024-02-21T08:35:38;11.93;;;4.40;;
6751;SDS011;3413;47.680;9.166;2024-02-21T08:40:40;6.73;;;3.60;;
6751;SDS011;3413;47.680;9.166;2024-02-21T08:45:42;8.70;;;3.90;;
6751;SDS011;3413;47.680;9.166;2024-02-21T08:50:44;7.80;;;3.67;;
6751;SDS011;3413;47.680;9.166;2024-02-21T08:55:46;9.97;;;4.07;;
6751;SDS011;3413;47.680;9.166;2024-02-21T09:00:49;9.40;;;4.13;;
6751;SDS011;3413;47.680;9.166;2024-02-21T09:05:51;7.27;;;4.20;;
6751;SDS011;3413;47.680;9.166;2024-02-21T09:10:53;6.37;;;4.03;;
6751;SDS011;3413;47.680;9.166;2024-02-21T09:15:55;6.67;;;3.90;;
6751;SDS011;3413;47.680;9.166;2024-02-21T09:20:57;10.40;;;3.73;;
6751;SDS011;3413;47.680;9.166;2024-02-21T09:25:59;9.07;;;4.20;;
6751;SDS011;3413;47.680;9.166;2024-02-21T09:31:05;7.93;;;4.20;;
6751;SDS011;3413;47.680;9.166;2024-02-21T09:36:07;8.50;;;3.30;;
6751;SDS011;3413;47.680;9.166;2024-02-21T09:46:33;5.63;;;3.23;;
6751;SDS011;3413;47.680;9.166;2024-02-21T09:51:42;6.07;;;2.70;;
6751;SDS011;3413;47.680;9.166;2024-02-21T09:56:46;8.20;;;3.33;;
6751;SDS011;3413;47.680;9.166;2024-02-21T10:01:49;9.50;;;3.00;;
6751;SDS011;3413;47.680;9.166;2024-02-21T10:06:55;4.30;;;2.40;;
6751;SDS011;3413;47.680;9.166;2024-02-21T10:12:18;4.30;;;2.13;;
6751;SDS011;3413;47.680;9.166;2024-02-21T10:17:20;6.00;;;2.70;;
6751;SDS011;3413;47.680;9.166;2024-02-21T10:22:22;7.70;;;3.43;;
6751;SDS011;3413;47.680;9.166;2024-02-21T10:27:26;5.87;;;2.50;;
6751;SDS011;3413;47.680;9.166;2024-02-21T10:32:28;8.00;;;2.50;;
6751;SDS011;3413;47.680;9.166;2024-02-21T10:37:32;4.67;;;2.90;;
6751;SDS011;3413;47.680;9.166;2024-02-21T10:42:34;11.03;;;2.63;;
6751;SDS011;3413;47.680;9.166;2024-02-21T10:47:38;9.50;;;2.13;;
6751;SDS011;3413;47.680;9.166;2024-02-21T10:52:47;3.30;;;2.00;;
6751;SDS011;3413;47.680;9.166;2024-02-21T10:57:57;4.00;;;2.27;;
6751;SDS011;3413;47.680;9.166;2024-02-21T11:02:59;6.33;;;2.53;;
6751;SDS011;3413;47.680;9.166;2024-02-21T11:08:03;3.67;;;1.83;;
6751;SDS011;3413;47.680;9.166;2024-02-21T11:13:08;4.40;;;1.70;;
6751;SDS011;3413;47.680;9.166;2024-02-21T11:18:11;8.20;;;2.17;;
6751;SDS011;3413;47.680;9.166;2024-02-21T11:23:27;6.47;;;3.17;;
6751;SDS011;3413;47.680;9.166;2024-02-21T11:28:30;8.33;;;1.90;;
6751;SDS011;3413;47.680;9.166;2024-02-21T11:33:33;3.73;;;2.00;;
6751;SDS011;3413;47.680;9.166;2024-02-21T11:38:39;4.03;;;1.87;;
6751;SDS011;3413;47.680;9.166;2024-02-21T11:43:42;6.87;;;1.50;;
6751;SDS011;3413;47.680;9.166;2024-02-21T11:48:44;2.50;;;1.60;;
6751;SDS011;3413;47.680;9.166;2024-02-21T11:53:55;4.57;;;1.67;;
6751;SDS011;3413;47.680;9.166;2024-02-21T11:59:03;2.63;;;1.20;;
6751;SDS011;3413;47.680;9.166;2024-02-21T12:04:05;3.10;;;1.40;;
6751;SDS011;3413;47.680;9.166;2024-02-21T12:09:09;5.43;;;1.57;;
6751;SDS011;3413;47.680;9.166;2024-02-21T12:14:15;4.53;;;2.07;;
6751;SDS011;3413;47.680;9.166;2024-02-21T12:19:19;4.43;;;1.77;;
6751;SDS011;3413;47.680;9.166;2024-02-21T12:24:40;9.10;;;1.83;;
6751;SDS011;3413;47.680;9.166;2024-02-21T12:29:49;4.50;;;1.90;;
6751;SDS011;3413;47.680;9.166;2024-02-21T12:34:53;2.47;;;1.57;;
6751;SDS011;3413;47.680;9.166;2024-02-21T12:39:57;2.97;;;1.50;;
6751;SDS011;3413;47.680;9.166;2024-02-21T12:45:01;2.47;;;1.63;;
6751;SDS011;3413;47.680;9.166;2024-02-21T12:50:08;2.90;;;1.30;;
6751;SDS011;3413;47.680;9.166;2024-02-21T12:55:12;3.10;;;1.17;;
6751;SDS011;3413;47.680;9.166;2024-02-21T13:00:54;5.80;;;1.43;;
6751;SDS011;3413;47.680;9.166;2024-02-21T13:06:13;3.13;;;1.80;;
6751;SDS011;3413;47.680;9.166;2024-02-21T13:12:03;5.50;;;1.97;;
6751;SDS011;3413;47.680;9.166;2024-02-21T13:17:09;9.80;;;2.37;;
6751;SDS011;3413;47.680;9.166;2024-02-21T13:22:51;5.00;;;2.03;;
6751;SDS011;3413;47.680;9.166;2024-02-21T13:27:55;8.73;;;2.60;;
6751;SDS011;3413;47.680;9.166;2024-02-21T13:33:12;5.80;;;2.10;;
6751;SDS011;3413;47.680;9.166;2024-02-21T13:38:33;14.97;;;2.83;;
6751;SDS011;3413;47.680;9.166;2024-02-21T13:43:37;4.80;;;2.47;;
6751;SDS011;3413;47.680;9.166;2024-02-21T13:48:43;6.60;;;2.77;;
6751;SDS011;3413;47.680;9.166;2024-02-21T13:53:46;3.00;;;1.93;;
6751;SDS011;3413;47.680;9.166;2024-02-21T13:58:49;5.83;;;2.63;;
6751;SDS011;3413;47.680;9.166;2024-02-21T14:04:04;7.83;;;2.50;;
6751;SDS011;3413;47.680;9.166;2024-02-21T14:09:12;6.73;;;2.57;;
6751;SDS011;3413;47.680;9.166;2024-02-21T14:19:53;5.87;;;2.50;;
6751;SDS011;3413;47.680;9.166;2024-02-21T14:24:58;5.07;;;2.13;;
6751;SDS011;3413;47.680;9.166;2024-02-21T14:30:01;13.40;;;2.63;;
6751;SDS011;3413;47.680;9.166;2024-02-21T14:35:07;5.20;;;2.43;;
6751;SDS011;3413;47.680;9.166;2024-02-21T14:40:10;8.50;;;2.13;;
6751;SDS011;3413;47.680;9.166;2024-02-21T14:45:29;4.23;;;2.43;;
6751;SDS011;3413;47.680;9.166;2024-02-21T14:50:33;6.90;;;2.73;;
6751;SDS011;3413;47.680;9.166;2024-02-21T14:55:36;7.43;;;2.80;;
6751;SDS011;3413;47.680;9.166;2024-02-21T15:00:44;4.90;;;2.70;;
6751;SDS011;3413;47.680;9.166;2024-02-21T15:05:49;17.10;;;3.47;;
6751;SDS011;3413;47.680;9.166;2024-02-21T15:10:52;5.50;;;2.73;;
6751;SDS011;3413;47.680;9.166;2024-02-21T15:15:55;4.90;;;2.37;;
6751;SDS011;3413;47.680;9.166;2024-02-21T15:21:01;6.07;;;2.83;;
6751;SDS011;3413;47.680;9.166;2024-02-21T15:26:05;5.00;;;2.70;;
6751;SDS011;3413;47.680;9.166;2024-02-21T15:31:08;6.50;;;2.83;;
6751;SDS011;3413;47.680;9.166;2024-02-21T15:36:11;8.70;;;3.40;;
6751;SDS011;3413;47.680;9.166;2024-02-21T15:41:14;5.40;;;2.60;;
6751;SDS011;3413;47.680;9.166;2024-02-21T15:46:24;6.70;;;3.33;;
6751;SDS011;3413;47.680;9.166;2024-02-21T15:51:27;12.20;;;2.47;;
6751;SDS011;3413;47.680;9.166;2024-02-21T15:56:29;6.00;;;2.77;;
6751;SDS011;3413;47.680;9.166;2024-02-21T16:01:32;4.53;;;2.77;;
6751;SDS011;3413;47.680;9.166;2024-02-21T16:06:37;5.87;;;3.10;;
6751;SDS011;3413;47.680;9.166;2024-02-21T16:11:43;4.40;;;2.57;;
6751;SDS011;3413;47.680;9.166;2024-02-21T16:16:47;4.60;;;2.30;;
6751;SDS011;3413;47.680;9.166;2024-02-21T16:23:14;4.50;;;2.60;;
6751;SDS011;3413;47.680;9.166;2024-02-21T16:42:12;2.60;;;1.70;;
6751;SDS011;3413;47.680;9.166;2024-02-21T16:55:45;5.60;;;2.30;;
6751;SDS011;3413;47.680;9.166;2024-02-21T17:02:18;5.00;;;2.70;;
6751;SDS011;3413;47.680;9.166;2024-02-21T17:07:22;5.53;;;1.80;;
6751;SDS011;3413;47.680;9.166;2024-02-21T17:12:29;6.47;;;2.40;;
6751;SDS011;3413;47.680;9.166;2024-02-21T17:17:33;5.93;;;2.20;;
6751;SDS011;3413;47.680;9.166;2024-02-21T17:22:36;4.33;;;2.63;;
6751;SDS011;3413;47.680;9.166;2024-02-21T17:27:38;2.50;;;1.50;;
6751;SDS011;3413;47.680;9.166;2024-02-21T17:32:40;2.63;;;2.00;;
6751;SDS011;3413;47.680;9.166;2024-02-21T17:37:43;4.00;;;1.67;;
6751;SDS011;3413;47.680;9.166;2024-02-21T17:42:44;2.80;;;1.37;;
6751;SDS011;3413;47.680;9.166;2024-02-21T17:47:46;4.40;;;2.00;;
6751;SDS011;3413;47.680;9.166;2024-02-21T17:52:49;4.07;;;2.30;;
6751;SDS011;3413;47.680;9.166;2024-02-21T17:57:51;5.03;;;2.50;;
6751;SDS011;3413;47.680;9.166;2024-02-21T18:02:53;4.80;;;2.20;;
6751;SDS011;3413;47.680;9.166;2024-02-21T18:07:56;4.50;;;2.70;;
6751;SDS011;3413;47.680;9.166;2024-02-21T18:12:58;5.47;;;2.40;;
6751;SDS011;3413;47.680;9.166;2024-02-21T18:18:06;12.40;;;3.40;;
6751;SDS011;3413;47.680;9.166;2024-02-21T18:23:08;7.33;;;2.77;;
6751;SDS011;3413;47.680;9.166;2024-02-21T18:28:10;3.70;;;2.47;;
6751;SDS011;3413;47.680;9.166;2024-02-21T18:33:13;4.90;;;2.37;;
6751;SDS011;3413;47.680;9.166;2024-02-21T18:38:15;7.47;;;3.30;;
6751;SDS011;3413;47.680;9.166;2024-02-21T18:43:17;4.60;;;2.60;;
6751;SDS011;3413;47.680;9.166;2024-02-21T18:48:19;6.20;;;3.70;;
6751;SDS011;3413;47.680;9.166;2024-02-21T18:53:21;4.43;;;2.70;;
6751;SDS011;3413;47.680;9.166;2024-02-21T18:58:23;7.80;;;2.83;;
6751;SDS011;3413;47.680;9.166;2024-02-21T19:03:25;2.40;;;1.83;;
6751;SDS011;3413;47.680;9.166;2024-02-21T19:08:27;3.13;;;2.00;;
6751;SDS011;3413;47.680;9.166;2024-02-21T19:13:28;3.33;;;2.40;;
6751;SDS011;3413;47.680;9.166;2024-02-21T19:18:30;6.90;;;2.50;;
6751;SDS011;3413;47.680;9.166;2024-02-21T19:23:33;8.43;;;2.77;;
6751;SDS011;3413;47.680;9.166;2024-02-21T19:28:35;8.50;;;2.63;;
6751;SDS011;3413;47.680;9.166;2024-02-21T19:33:37;4.20;;;2.30;;
6751;SDS011;3413;47.680;9.166;2024-02-21T19:38:39;8.10;;;2.23;;
6751;SDS011;3413;47.680;9.166;2024-02-21T19:43:41;6.80;;;3.40;;
6751;SDS011;3413;47.680;9.166;2024-02-21T19:48:43;3.60;;;2.13;;
6751;SDS011;3413;47.680;9.166;2024-02-21T19:53:45;4.10;;;1.83;;
6751;SDS011;3413;47.680;9.166;2024-02-21T19:58:50;3.10;;;1.70;;
6751;SDS011;3413;47.680;9.166;2024-02-21T20:03:52;5.63;;;2.23;;
6751;SDS011;3413;47.680;9.166;2024-02-21T20:08:54;3.47;;;2.10;;
6751;SDS011;3413;47.680;9.166;2024-02-21T20:13:59;4.57;;;2.57;;
6751;SDS011;3413;47.680;9.166;2024-02-21T20:19:03;9.33;;;2.60;;
6751;SDS011;3413;47.680;9.166;2024-02-21T20:24:05;6.17;;;2.63;;
6751;SDS011;3413;47.680;9.166;2024-02-21T20:29:07;7.27;;;2.63;;
6751;SDS011;3413;47.680;9.166;2024-02-21T20:34:15;5.57;;;3.00;;
6751;SDS011;3413;47.680;9.166;2024-02-21T20:39:17;9.80;;;2.73;;
6751;SDS011;3413;47.680;9.166;2024-02-21T20:44:20;4.40;;;2.37;;
6751;SDS011;3413;47.680;9.166;2024-02-21T20:49:22;2.43;;;1.57;;
6751;SDS011;3413;47.680;9.166;2024-02-21T20:54:24;5.37;;;2.23;;
6751;SDS011;3413;47.680;9.166;2024-02-21T20:59:26;3.50;;;1.77;;
6751;SDS011;3413;47.680;9.166;2024-02-21T21:04:28;3.70;;;2.23;;
6751;SDS011;3413;47.680;9.166;2024-02-21T21:09:30;7.73;;;3.00;;
6751;SDS011;3413;47.680;9.166;2024-02-21T21:14:32;10.70;;;3.10;;
6751;SDS011;3413;47.680;9.166;2024-02-21T21:19:35;6.47;;;2.90;;
6751;SDS011;3413;47.680;9.166;2024-02-21T21:24:37;3.00;;;1.70;;
6751;SDS011;3413;47.680;9.166;2024-02-21T21:29:39;3.90;;;1.77;;
6751;SDS011;3413;47.680;9.166;2024-02-21T21:34:41;3.70;;;2.17;;
6751;SDS011;3413;47.680;9.166;2024-02-21T21:39:45;5.10;;;2.43;;
6751;SDS011;3413;47.680;9.166;2024-02-21T21:44:51;5.67;;;2.30;;
6751;SDS011;3413;47.680;9.166;2024-02-21T21:49:54;5.60;;;2.60;;
6751;SDS011;3413;47.680;9.166;2024-02-21T21:54:56;6.90;;;2.37;;
6751;SDS011;3413;47.680;9.166;2024-02-21T21:59:58;5.17;;;2.70;;
6751;SDS011;3413;47.680;9.166;2024-02-21T22:05:00;4.73;;;2.60;;
6751;SDS011;3413;47.680;9.166;2024-02-21T22:10:03;6.47;;;2.17;;
6751;SDS011;3413;47.680;9.166;2024-02-21T22:15:06;4.10;;;2.37;;
6751;SDS011;3413;47.680;9.166;2024-02-21T22:20:08;4.27;;;2.43;;
6751;SDS011;3413;47.680;9.166;2024-02-21T22:25:11;4.30;;;2.23;;
6751;SDS011;3413;47.680;9.166;2024-02-21T22:30:13;11.33;;;3.67;;
6751;SDS011;3413;47.680;9.166;2024-02-21T22:35:15;5.50;;;2.57;;
6751;SDS011;3413;47.680;9.166;2024-02-21T22:40:16;7.23;;;2.93;;
6751;SDS011;3413;47.680;9.166;2024-02-21T22:45:18;5.50;;;2.80;;
6751;SDS011;3413;47.680;9.166;2024-02-21T22:50:20;4.30;;;2.90;;
6751;SDS011;3413;47.680;9.166;2024-02-21T22:55:23;3.50;;;2.77;;
6751;SDS011;3413;47.680;9.166;2024-02-21T23:00:25;4.57;;;2.87;;
6751;SDS011;3413;47.680;9.166;2024-02-21T23:05:27;3.03;;;2.23;;
6751;SDS011;3413;47.680;9.166;2024-02-21T23:10:29;6.43;;;2.97;;
6751;SDS011;3413;47.680;9.166;2024-02-21T23:15:31;3.00;;;2.00;;
6751;SDS011;3413;47.680;9.166;2024-02-21T23:20:33;3.70;;;2.17;;
6751;SDS011;3413;47.680;9.166;2024-02-21T23:25:35;3.50;;;1.93;;
6751;SDS011;3413;47.680;9.166;2024-02-21T23:30:37;5.37;;;2.37;;
6751;SDS011;3413;47.680;9.166;2024-02-21T23:35:39;3.90;;;1.30;;
6751;SDS011;3413;47.680;9.166;2024-02-21T23:40:41;2.00;;;1.30;;
6751;SDS011;3413;47.680;9.166;2024-02-21T23:45:43;2.23;;;1.20;;
6751;SDS011;3413;47.680;9.166;2024-02-21T23:50:45;2.07;;;1.43;;
6751;SDS011;3413;47.680;9.166;2024-02-21T23:55:47;4.60;;;1.60;;
